createdAt,value
2022-11-24T00:01:21.490Z,8
2022-11-24T00:03:27.865Z,8
2022-11-24T00:05:30.900Z,8
2022-11-24T00:07:34.128Z,7.9
2022-11-24T00:09:37.073Z,7.8
2022-11-24T00:13:43.233Z,7.9
2022-11-24T00:17:52.673Z,7.8
2022-11-24T00:19:55.725Z,7.9
2022-11-24T00:21:58.822Z,7.9
2022-11-24T00:24:01.917Z,7.8
2022-11-24T00:26:05.042Z,7.9
2022-11-24T00:28:08.137Z,7.8
2022-11-24T00:30:11.246Z,7.9
2022-11-24T00:32:17.556Z,7.7
2022-11-24T00:34:20.632Z,7.8
2022-11-24T00:36:23.709Z,7.9
2022-11-24T00:41:33.046Z,7.9
2022-11-24T00:45:42.513Z,7.9
2022-11-24T00:47:45.564Z,7.9
2022-11-24T00:51:51.708Z,8
2022-11-24T01:00:07.325Z,7.9
2022-11-24T01:08:19.726Z,7.8
2022-11-24T01:10:22.793Z,7.9
2022-11-24T01:12:25.876Z,7.9
2022-11-24T01:14:32.496Z,7.8
2022-11-24T01:16:35.314Z,7.8
2022-11-24T01:18:38.384Z,7.8
2022-11-24T01:22:44.590Z,7.9
2022-11-24T01:24:47.701Z,7.8
2022-11-24T01:26:50.759Z,8
2022-11-24T01:28:57.104Z,7.9
2022-11-24T01:35:34.734Z,8
2022-11-24T01:37:37.787Z,8
2022-11-24T01:39:40.917Z,7.9
2022-11-24T01:45:53.488Z,7.8
2022-11-24T01:52:02.716Z,7.8
2022-11-24T01:54:05.777Z,7.8
2022-11-24T01:56:12.134Z,7.7
2022-11-24T01:58:15.192Z,7.7
2022-11-24T02:02:21.437Z,7.8
2022-11-24T02:04:24.471Z,7.8
2022-11-24T02:06:27.603Z,7.7
2022-11-24T02:08:30.637Z,7.8
2022-11-24T02:10:36.949Z,7.7
2022-11-24T02:12:40.078Z,7.7
2022-11-24T02:14:43.126Z,7.6
2022-11-24T02:16:46.276Z,7.7
2022-11-24T02:18:49.356Z,7.7
2022-11-24T02:20:52.409Z,7.7
2022-11-24T02:22:55.501Z,7.7
2022-11-24T02:27:04.908Z,7.7
2022-11-24T02:30:11.180Z,7.8
2022-11-24T02:32:14.279Z,7.8
2022-11-24T02:34:17.387Z,7.8
2022-11-24T02:36:20.445Z,7.7
2022-11-24T02:38:26.786Z,7.9
2022-11-24T02:40:29.843Z,7.9
2022-11-24T02:42:32.938Z,7.8
2022-11-24T02:44:36.264Z,7.7
2022-11-24T02:46:39.203Z,7.8
2022-11-24T02:48:42.218Z,7.8
2022-11-24T02:52:51.665Z,7.8
2022-11-24T02:54:54.719Z,7.9
2022-11-24T02:56:57.857Z,7.9
2022-11-24T02:59:00.949Z,7.9
2022-11-24T03:01:04.083Z,8
2022-11-24T03:03:07.197Z,8
2022-11-24T03:05:10.231Z,8
2022-11-24T03:07:16.542Z,7.9
2022-11-24T03:09:19.600Z,8.1
2022-11-24T03:11:22.728Z,8.1
2022-11-24T03:13:25.833Z,7.9
2022-11-24T03:15:28.909Z,8
2022-11-24T03:17:32.022Z,8
2022-11-24T03:19:35.081Z,7.9
2022-11-24T03:21:41.370Z,7.8
2022-11-24T03:23:44.490Z,7.8
2022-11-24T03:25:47.561Z,7.8
2022-11-24T03:26:50.708Z,7.8
2022-11-24T03:28:53.801Z,7.8
2022-11-24T03:30:57.054Z,7.9
2022-11-24T03:33:00.019Z,7.8
2022-11-24T03:35:06.302Z,7.8
2022-11-24T03:37:09.444Z,7.9
2022-11-24T03:39:12.531Z,7.7
2022-11-24T03:41:15.604Z,7.7
2022-11-24T03:43:18.735Z,7.7
2022-11-24T03:45:44.761Z,7.8
2022-11-24T03:47:24.876Z,7.8
2022-11-24T03:49:31.450Z,7.9
2022-11-24T03:51:34.259Z,7.9
2022-11-24T03:53:37.391Z,7.9
2022-11-24T03:55:40.496Z,7.9
2022-11-24T03:57:43.593Z,7.9
2022-11-24T03:59:46.679Z,8
2022-11-24T04:01:49.856Z,7.9
2022-11-24T04:03:56.114Z,8
2022-11-24T04:22:27.181Z,8
2022-11-24T04:27:36.544Z,7.9
2022-11-24T04:29:39.628Z,8
2022-11-24T04:33:49.079Z,8
2022-11-24T04:35:52.149Z,7.9
2022-11-24T04:39:58.383Z,7.9
2022-11-24T04:42:01.472Z,8
2022-11-24T04:46:10.957Z,7.9
2022-11-24T04:50:17.064Z,8
2022-11-24T04:52:20.186Z,7.9
2022-11-24T04:54:23.285Z,7.9
2022-11-24T04:56:26.348Z,7.9
2022-11-24T04:58:29.490Z,7.9
2022-11-24T05:00:35.772Z,8
2022-11-24T05:02:38.865Z,7.9
2022-11-24T05:06:45.149Z,7.9
2022-11-24T05:08:48.159Z,7.8
2022-11-24T05:10:51.255Z,7.9
2022-11-24T05:12:54.367Z,7.8
2022-11-24T05:15:00.682Z,7.8
2022-11-24T05:17:03.787Z,7.8
2022-11-24T05:19:06.871Z,7.8
2022-11-24T05:21:30.826Z,7.9
2022-11-24T05:25:36.864Z,7.9
2022-11-24T05:29:46.247Z,7.9
2022-11-24T05:31:49.432Z,8
2022-11-24T05:33:52.434Z,8
2022-11-24T05:35:55.530Z,8.1
2022-11-24T05:37:58.649Z,8.1
2022-11-24T05:42:08.065Z,8.2
2022-11-24T05:46:14.289Z,8.2
2022-11-24T05:48:17.338Z,8.2
2022-11-24T05:54:26.632Z,8.2
2022-11-24T05:56:32.889Z,8.2
2022-11-24T05:58:36.006Z,8.2
2022-11-24T06:02:42.366Z,8.2
2022-11-24T06:04:45.293Z,8.2
2022-11-24T06:06:48.395Z,8.2
2022-11-24T06:08:51.486Z,8.2
2022-11-24T06:10:57.796Z,8.4
2022-11-24T06:15:03.956Z,8.3
2022-11-24T06:16:07.256Z,8.3
2022-11-24T06:18:10.259Z,8.4
2022-11-24T06:20:13.345Z,8.3
2022-11-24T06:22:16.439Z,8.4
2022-11-24T06:24:22.718Z,8.4
2022-11-24T06:26:25.949Z,8.2
2022-11-24T06:28:28.954Z,8.3
2022-11-24T06:30:32.052Z,8.2
2022-11-24T06:32:35.174Z,8.2
2022-11-24T06:34:38.219Z,8.2
2022-11-24T06:36:41.337Z,8.1
2022-11-24T06:38:47.638Z,8.2
2022-11-24T06:40:50.735Z,8.1
2022-11-24T06:42:53.848Z,8.1
2022-11-24T06:44:56.954Z,8.1
2022-11-24T06:47:00.051Z,8.1
2022-11-24T06:51:06.221Z,8.1
2022-11-24T06:53:12.533Z,8.1
2022-11-24T06:57:18.704Z,8
2022-11-24T07:03:28.027Z,7.9
2022-11-24T07:05:31.071Z,7.9
2022-11-24T07:07:37.413Z,7.8
2022-11-24T07:09:40.460Z,7.8
2022-11-24T07:11:43.589Z,7.9
2022-11-24T07:12:46.729Z,7.8
2022-11-24T07:14:49.804Z,7.8
2022-11-24T07:16:52.949Z,7.9
2022-11-24T07:18:55.957Z,7.9
2022-11-24T07:21:02.262Z,7.8
2022-11-24T07:25:10.060Z,7.8
2022-11-24T07:27:13.080Z,7.9
2022-11-24T07:29:16.177Z,7.8
2022-11-24T07:31:19.393Z,7.8
2022-11-24T07:33:22.393Z,7.8
2022-11-24T07:35:28.681Z,7.7
2022-11-24T07:37:32.073Z,7.8
2022-11-24T07:39:34.852Z,7.8
2022-11-24T07:41:37.951Z,7.9
2022-11-24T07:43:41.172Z,7.8
2022-11-24T07:47:47.235Z,8
2022-11-24T07:49:53.569Z,7.9
2022-11-24T07:51:56.635Z,7.9
2022-11-24T07:53:59.748Z,8
2022-11-24T07:56:02.834Z,7.9
2022-11-24T07:58:05.947Z,7.9
2022-11-24T08:00:09.047Z,8
2022-11-24T08:02:12.191Z,7.9
2022-11-24T08:09:27.771Z,7.9
2022-11-24T08:11:30.865Z,7.8
2022-11-24T08:15:37.047Z,8
2022-11-24T08:17:43.357Z,8
2022-11-24T08:19:46.460Z,7.9
2022-11-24T08:21:49.544Z,8
2022-11-24T08:23:52.648Z,7.9
2022-11-24T08:27:58.837Z,7.8
2022-11-24T08:30:01.935Z,7.8
2022-11-24T08:32:08.341Z,7.9
2022-11-24T08:34:11.324Z,8
2022-11-24T08:36:14.428Z,8
2022-11-24T08:38:17.540Z,8.1
2022-11-24T08:40:20.640Z,8.2
2022-11-24T08:42:23.713Z,8.2
2022-11-24T08:44:26.814Z,8.5
2022-11-24T08:46:33.173Z,8.3
2022-11-24T08:48:36.227Z,8.3
2022-11-24T08:50:39.316Z,8.4
2022-11-24T08:52:42.404Z,8.9
2022-11-24T08:56:48.584Z,9.5
2022-11-24T09:00:58.800Z,9.1
2022-11-24T09:03:01.840Z,9.4
2022-11-24T09:17:47.969Z,9.3
2022-11-24T09:19:51.124Z,9.8
2022-11-24T09:23:57.292Z,10.2
2022-11-24T09:26:00.384Z,9.9
2022-11-24T09:28:06.707Z,9.7
2022-11-24T09:30:09.818Z,9.8
2022-11-24T09:34:16.033Z,9.6
2022-11-24T09:36:19.172Z,9.4
2022-11-24T09:40:25.356Z,9.6
2022-11-24T09:42:31.668Z,9.8
2022-11-24T09:46:37.922Z,9.6
2022-11-24T09:48:40.998Z,10
2022-11-24T09:50:44.158Z,10.1
2022-11-24T09:52:47.254Z,10
2022-11-24T09:54:50.368Z,9.6
2022-11-24T09:56:56.719Z,9.6
2022-11-24T09:58:59.846Z,9.7
2022-11-24T10:01:03.045Z,10
2022-11-24T10:02:06.238Z,9.9
2022-11-24T10:04:09.223Z,10.1
2022-11-24T10:06:12.354Z,10.5
2022-11-24T10:08:15.448Z,10.2
2022-11-24T10:10:24.993Z,10.5
2022-11-24T10:16:31.208Z,10.6
2022-11-24T10:20:37.346Z,11
2022-11-24T10:22:40.482Z,11.5
2022-11-24T10:24:46.774Z,11.8
2022-11-24T10:26:49.903Z,12.2
2022-11-24T10:28:53.025Z,12.5
2022-11-24T10:30:56.176Z,12.7
2022-11-24T10:32:59.270Z,12.2
2022-11-24T10:35:02.395Z,13
2022-11-24T10:37:05.525Z,13.3
2022-11-24T10:39:11.855Z,13.4
2022-11-24T10:41:14.974Z,13.5
2022-11-24T10:43:18.095Z,13.6
2022-11-24T10:45:21.235Z,13.4
2022-11-24T10:47:24.349Z,13.1
2022-11-24T10:49:27.518Z,12.8
2022-11-24T10:51:30.706Z,12.9
2022-11-24T10:53:36.986Z,12.6
2022-11-24T10:55:40.133Z,12.6
2022-11-24T10:57:43.264Z,12.3
2022-11-24T10:58:46.465Z,12.3
2022-11-24T11:00:49.580Z,11.8
2022-11-24T11:02:52.768Z,12.1
2022-11-24T11:07:02.209Z,13.9
2022-11-24T11:09:05.342Z,13.8
2022-11-24T11:11:08.468Z,14.1
2022-11-24T11:13:11.620Z,14.2
2022-11-24T11:15:14.647Z,14.1
2022-11-24T11:17:17.672Z,15
2022-11-24T11:19:47.408Z,14
2022-11-24T11:21:26.870Z,13.2
2022-11-24T11:23:29.888Z,12.9
2022-11-24T11:25:32.923Z,13
2022-11-24T11:27:35.974Z,13.5
2022-11-24T11:31:42.075Z,14.2
2022-11-24T11:35:51.236Z,15.1
2022-11-24T11:39:57.321Z,15.6
2022-11-24T11:42:00.315Z,15.1
2022-11-24T11:44:03.368Z,14.9
2022-11-24T11:46:06.573Z,15.4
2022-11-24T11:48:09.458Z,14.9
2022-11-24T11:50:15.665Z,14.8
2022-11-24T11:52:18.621Z,14.9
2022-11-24T11:54:21.773Z,15.2
2022-11-24T11:57:27.775Z,14.4
2022-11-24T11:59:30.810Z,15.1
2022-11-24T12:03:40.104Z,15.2
2022-11-24T12:05:42.992Z,15.1
2022-11-24T12:09:49.047Z,14.9
2022-11-24T12:15:58.204Z,13.1
2022-11-24T12:18:04.283Z,12.5
2022-11-24T12:20:07.318Z,12.8
2022-11-24T12:22:10.360Z,13
2022-11-24T12:24:13.431Z,12.7
2022-11-24T12:26:16.437Z,12.8
2022-11-24T12:28:19.488Z,12.8
2022-11-24T12:30:22.672Z,12.7
2022-11-24T12:32:28.643Z,12.6
2022-11-24T12:34:31.682Z,12.5
2022-11-24T12:36:34.745Z,12.2
2022-11-24T12:38:37.775Z,11.9
2022-11-24T12:40:46.383Z,12
2022-11-24T12:44:46.872Z,12.2
2022-11-24T12:46:53.108Z,12.3
2022-11-24T12:48:56.079Z,12.1
2022-11-24T12:50:59.106Z,11.9
2022-11-24T12:55:25.768Z,11.8
2022-11-24T12:57:28.928Z,11.9
2022-11-24T12:59:35.519Z,11.8
2022-11-24T13:01:38.580Z,11.8
2022-11-24T13:05:44.684Z,11.6
2022-11-24T13:07:47.890Z,11.7
2022-11-24T13:09:50.951Z,11.8
2022-11-24T13:11:57.813Z,11.8
2022-11-24T13:18:11.989Z,11.7
2022-11-24T13:20:11.431Z,11.7
2022-11-24T13:22:14.508Z,11.9
2022-11-24T13:24:18.776Z,11.9
2022-11-24T13:26:20.771Z,11.7
2022-11-24T13:28:53.980Z,11.7
2022-11-24T13:30:30.287Z,11.7
2022-11-24T13:32:33.437Z,11.8
2022-11-24T13:34:36.730Z,11.7
2022-11-24T13:36:39.668Z,11.6
2022-11-24T13:38:42.798Z,11.6
2022-11-24T13:41:06.249Z,11.7
2022-11-24T13:42:52.300Z,11.6
2022-11-24T13:44:55.421Z,11.5
2022-11-24T13:47:04.850Z,11.6
2022-11-24T13:48:01.875Z,11.4
2022-11-24T13:50:04.872Z,11.4
2022-11-24T13:52:08.022Z,11.5
2022-11-24T13:54:11.134Z,11.5
2022-11-24T14:12:45.801Z,11.2
2022-11-24T14:14:48.919Z,11.2
2022-11-24T14:16:52.050Z,11.2
2022-11-24T14:18:55.196Z,11.2
2022-11-24T14:20:58.330Z,11.3
2022-11-24T14:23:01.454Z,11.2
2022-11-24T14:25:07.751Z,11.2
2022-11-24T14:29:14.011Z,11
2022-11-24T14:31:17.188Z,11.1
2022-11-24T14:43:39.121Z,10.7
2022-11-24T14:44:42.269Z,10.6
2022-11-24T14:46:45.483Z,10.6
2022-11-24T14:48:48.551Z,10.7
2022-11-24T14:50:51.644Z,10.6
2022-11-24T14:52:58.017Z,10.6
2022-11-24T14:55:12.245Z,10.5
2022-11-24T14:57:04.330Z,10.4
2022-11-24T14:59:07.373Z,10.5
2022-11-24T15:01:10.633Z,10.4
2022-11-24T15:03:13.618Z,10.4
2022-11-24T15:05:16.769Z,10.3
2022-11-24T15:07:23.184Z,10.2
2022-11-24T15:09:26.239Z,10.1
2022-11-24T15:11:29.362Z,10.2
2022-11-24T15:13:32.480Z,10.2
2022-11-24T15:15:35.621Z,10.1
2022-11-24T15:17:38.730Z,10.1
2022-11-24T15:19:41.847Z,10.1
2022-11-24T15:21:48.175Z,10
2022-11-24T15:23:51.354Z,9.9
2022-11-24T15:25:54.395Z,9.8
2022-11-24T15:27:57.539Z,10
2022-11-24T15:30:00.661Z,9.8
2022-11-24T15:32:03.814Z,9.7
2022-11-24T15:34:06.890Z,9.6
2022-11-24T15:36:13.221Z,9.6
2022-11-24T15:38:16.343Z,9.5
2022-11-24T15:40:19.458Z,9.5
2022-11-24T15:43:25.743Z,9.4
2022-11-24T15:45:28.850Z,9.4
2022-11-24T15:49:38.333Z,9.3
2022-11-24T15:51:41.420Z,9.3
2022-11-24T15:53:44.534Z,9.3
2022-11-24T15:55:47.656Z,9.2
2022-11-24T15:57:50.780Z,9.1
2022-11-24T15:59:53.889Z,9.1
2022-11-24T16:01:57.024Z,9
2022-11-24T16:04:03.313Z,9
2022-11-24T16:06:06.384Z,9
2022-11-24T16:08:09.524Z,9
2022-11-24T16:12:15.743Z,9
2022-11-24T16:14:18.919Z,8.9
2022-11-24T16:16:22.105Z,8.9
2022-11-24T16:18:28.329Z,8.9
2022-11-24T16:20:31.435Z,8.9
2022-11-24T16:22:34.545Z,8.8
2022-11-24T16:24:37.677Z,8.8
2022-11-24T16:26:40.789Z,8.7
2022-11-24T16:34:56.483Z,8.7
2022-11-24T16:39:29.382Z,8.7
2022-11-24T16:41:32.510Z,8.6
2022-11-24T16:43:35.640Z,8.6
2022-11-24T16:47:45.079Z,8.7
2022-11-24T16:49:48.196Z,8.6
2022-11-24T16:53:54.403Z,8.8
2022-11-24T16:58:00.651Z,8.7
2022-11-24T17:00:07.000Z,8.7
2022-11-24T17:02:10.116Z,8.7
2022-11-24T17:04:13.209Z,8.7
2022-11-24T17:06:16.341Z,8.7
2022-11-24T17:08:19.444Z,8.6
2022-11-24T17:10:22.562Z,8.7
2022-11-24T17:12:25.684Z,8.6
2022-11-24T17:14:32.275Z,8.7
2022-11-24T17:16:35.164Z,8.7
2022-11-24T17:18:38.213Z,8.7
2022-11-24T17:20:41.745Z,8.7
2022-11-24T17:22:44.867Z,8.7
2022-11-24T17:24:47.986Z,8.9
2022-11-24T17:26:51.069Z,8.8
2022-11-24T17:28:57.398Z,8.7
2022-11-24T17:31:00.492Z,8.7
2022-11-24T17:33:03.602Z,8.8
2022-11-24T17:34:06.777Z,8.8
2022-11-24T17:36:09.881Z,8.7
2022-11-24T17:38:12.995Z,8.7
2022-11-24T17:40:27.813Z,8.8
2022-11-24T17:42:22.449Z,8.9
2022-11-24T17:44:25.524Z,8.8
2022-11-24T17:46:28.661Z,8.8
2022-11-24T17:50:34.842Z,8.9
2022-11-24T17:52:37.966Z,8.8
2022-11-24T17:54:46.930Z,8.8
2022-11-24T17:56:47.390Z,8.8
2022-11-24T18:02:56.727Z,8.9
2022-11-24T18:04:59.824Z,9
2022-11-24T18:09:06.038Z,8.9
2022-11-24T18:13:34.159Z,8.9
2022-11-24T18:15:18.594Z,8.9
2022-11-24T18:17:21.697Z,8.9
2022-11-24T18:19:24.798Z,8.9
2022-11-24T18:21:27.924Z,9
2022-11-24T18:23:31.010Z,8.9
2022-11-24T18:30:46.712Z,8.9
2022-11-24T18:32:49.811Z,8.9
2022-11-24T18:34:52.909Z,8.8
2022-11-24T18:36:56.027Z,8.7
2022-11-24T18:39:02.386Z,8.7
2022-11-24T18:41:05.493Z,8.8
2022-11-24T18:43:08.574Z,8.7
2022-11-24T18:45:11.704Z,8.7
2022-11-24T18:53:27.338Z,8.6
2022-11-24T18:59:36.639Z,8.5
2022-11-24T19:01:39.812Z,8.5
2022-11-24T19:05:45.960Z,8.5
2022-11-24T19:07:52.353Z,8.6
2022-11-24T19:09:55.413Z,8.5
2022-11-24T19:11:58.504Z,8.6
2022-11-24T19:14:01.610Z,8.6
2022-11-24T19:16:06.349Z,8.5
2022-11-24T19:22:18.810Z,8.5
2022-11-24T19:26:25.005Z,8.3
2022-11-24T19:27:28.159Z,8.5
2022-11-24T19:29:31.275Z,8.4
2022-11-24T19:31:34.581Z,8.3
2022-11-24T19:33:37.477Z,8.3
2022-11-24T19:35:43.814Z,8.5
2022-11-24T19:37:46.896Z,8.4
2022-11-24T19:39:49.989Z,8.2
2022-11-24T19:41:53.108Z,8.3
2022-11-24T19:43:56.218Z,8.2
2022-11-24T19:45:59.398Z,8.2
2022-11-24T19:48:02.419Z,8.3
2022-11-24T19:54:14.931Z,8.1
2022-11-24T19:56:18.011Z,8.1
2022-11-24T19:58:21.138Z,8.2
2022-11-24T20:00:27.927Z,8
2022-11-24T20:02:27.360Z,8.1
2022-11-24T20:06:36.707Z,8.1
2022-11-24T20:08:39.810Z,8.1
2022-11-24T20:10:42.900Z,8.1
2022-11-24T20:12:45.998Z,8.1
2022-11-24T20:14:49.236Z,8.1
2022-11-24T20:16:52.245Z,8
2022-11-24T20:18:58.476Z,7.9
2022-11-24T20:21:01.564Z,8
2022-11-24T20:23:04.670Z,8.1
2022-11-24T20:25:28.985Z,8
2022-11-24T20:27:32.045Z,8
2022-11-24T20:29:35.155Z,8
2022-11-24T20:31:41.483Z,7.9
2022-11-24T20:33:44.553Z,8
2022-11-24T20:35:47.606Z,7.9
2022-11-24T20:37:50.689Z,8
2022-11-24T20:39:53.804Z,8
2022-11-24T20:50:12.478Z,7.9
2022-11-24T20:52:15.562Z,7.9
2022-11-24T20:54:18.627Z,7.9
2022-11-24T20:56:21.721Z,8
2022-11-24T20:58:24.818Z,7.8
2022-11-24T21:00:31.028Z,7.8
2022-11-24T21:02:34.150Z,7.9
2022-11-24T21:04:37.620Z,8
2022-11-24T21:06:40.268Z,7.9
2022-11-24T21:08:43.223Z,8
2022-11-24T21:10:46.325Z,8
2022-11-24T21:12:49.442Z,7.9
2022-11-24T21:14:55.732Z,8
2022-11-24T21:16:58.809Z,7.9
2022-11-24T21:19:01.923Z,8
2022-11-24T21:22:08.133Z,8
2022-11-24T21:24:11.170Z,8.1
2022-11-24T21:26:16.856Z,8.1
2022-11-24T21:28:20.562Z,8.2
2022-11-24T21:30:23.674Z,8.3
2022-11-24T21:32:26.741Z,8.3
2022-11-24T21:34:29.806Z,8.4
2022-11-24T21:36:32.922Z,8.2
2022-11-24T21:40:39.126Z,8.2
2022-11-24T21:42:45.418Z,8.3
2022-11-24T21:44:48.523Z,8.4
2022-11-24T21:46:55.900Z,8.3
2022-11-24T21:48:54.700Z,8.4
2022-11-24T21:50:57.807Z,8.4
2022-11-24T21:53:03.604Z,8.4
2022-11-24T21:55:04.003Z,8.5
2022-11-24T21:57:10.304Z,8.5
2022-11-24T21:59:13.400Z,8.5
2022-11-24T22:01:16.594Z,8.5
2022-11-24T22:03:19.601Z,8.5
2022-11-24T22:05:22.703Z,8.6
2022-11-24T22:07:25.848Z,8.5
2022-11-24T22:09:28.893Z,8.5
2022-11-24T22:11:35.239Z,8.7
2022-11-24T22:13:38.307Z,8.7
2022-11-24T22:15:41.436Z,8.6
2022-11-24T22:16:44.628Z,8.7
2022-11-24T22:18:47.703Z,8.7
2022-11-24T22:20:50.803Z,8.6
2022-11-24T22:22:53.909Z,8.6
2022-11-24T22:25:00.212Z,8.7
2022-11-24T22:27:03.354Z,8.6
2022-11-24T22:29:06.441Z,8.6
2022-11-24T22:31:09.622Z,8.5
2022-11-24T22:33:12.673Z,8.5
2022-11-24T22:35:15.758Z,8.6
2022-11-24T22:37:18.856Z,8.5
2022-11-24T22:39:25.207Z,8.5
2022-11-24T22:41:28.314Z,8.4
2022-11-24T22:43:31.419Z,8.5
2022-11-24T22:45:34.554Z,8.4
2022-11-24T22:47:37.616Z,8.4
2022-11-24T22:49:40.714Z,8.4
2022-11-24T22:51:43.812Z,8.4
2022-11-24T22:53:50.144Z,8.3
2022-11-24T22:55:53.244Z,8.3
2022-11-24T22:57:57.208Z,8.3
2022-11-24T22:59:59.470Z,8.4
2022-11-24T23:02:02.567Z,8.4
2022-11-24T23:04:05.661Z,8.3
2022-11-24T23:06:08.756Z,8.4
2022-11-24T23:08:15.102Z,8.5
2022-11-24T23:10:18.190Z,8.5
2022-11-24T23:12:21.299Z,8.5
2022-11-24T23:13:24.562Z,8.5
2022-11-24T23:15:27.537Z,8.5
2022-11-24T23:21:40.072Z,8.5
2022-11-24T23:25:46.318Z,8.6
2022-11-24T23:27:49.382Z,8.5
2022-11-24T23:29:52.487Z,8.7
2022-11-24T23:31:55.645Z,8.7
2022-11-24T23:33:58.699Z,8.6
2022-11-24T23:38:08.265Z,8.6
2022-11-24T23:40:11.237Z,8.8
2022-11-24T23:42:14.316Z,8.6
2022-11-24T23:44:17.427Z,8.7
2022-11-24T23:46:20.771Z,8.7
2022-11-24T23:48:23.653Z,8.8
2022-11-24T23:50:29.984Z,8.7
2022-11-24T23:52:33.080Z,8.8
2022-11-24T23:54:36.421Z,8.7
2022-11-24T23:56:39.310Z,8.8
2022-11-24T23:58:42.410Z,8.8
